Time;durP1;ratioP1;P1;durP2;ratioP2;P2;SDS_P1;SDS_P2;PMS_P1;PMS_P2;Temp;Humidity;BMP_temperature;BMP_pressure;BME280_temperature;BME280_humidity;BME280_pressure;Samples;Min_cycle;Max_cycle;Signal;HPM_P1;HPM_P2
2021/10/25 00:00:36;;;;;;;6.20;4.22;;;2.50;1.00;;;;;;5052678;28;20175;-75
2021/10/25 00:03:01;;;;;;;8.23;3.65;;;2.50;1.00;;;;;;5043184;28;20184;-74
2021/10/25 00:05:36;;;;;;;5.10;3.50;;;2.50;1.00;;;;;;5040493;28;20236;-75
2021/10/25 00:08:02;;;;;;;7.80;4.38;;;;;;;;;;5054306;28;20163;-75
2021/10/25 00:10:30;;;;;;;7.53;3.67;;;;;;;;;;5052347;28;20266;-76
2021/10/25 00:13:17;;;;;;;5.43;3.67;;;2.30;1.00;;;;;;5053724;28;20183;-76
2021/10/25 00:15:54;;;;;;;6.07;3.88;;;;;;;;;;5042090;28;20210;-75
2021/10/25 00:18:24;;;;;;;5.85;3.85;;;;;;;;;;5052586;28;20685;-75
2021/10/25 00:20:50;;;;;;;5.93;3.88;;;;;;;;;;5050641;28;20708;-74
2021/10/25 00:23:18;;;;;;;8.73;5.03;;;;;;;;;;5047295;28;20636;-74
2021/10/25 00:25:44;;;;;;;5.30;3.85;;;;;;;;;;5033460;28;20666;-75
2021/10/25 00:28:18;;;;;;;19.02;4.05;;;;;;;;;;5051944;28;20576;-75
2021/10/25 00:30:44;;;;;;;5.68;3.83;;;;;;;;;;5047451;28;20186;-74
2021/10/25 00:33:10;;;;;;;4.45;3.42;;;;;;;;;;5050479;28;20226;-75
2021/10/25 00:35:54;;;;;;;5.28;3.40;;;;;;;;;;5053428;28;20263;-75
2021/10/25 00:38:24;;;;;;;8.55;3.70;;;;;;;;;;5043163;28;20182;-75
2021/10/25 00:40:54;;;;;;;5.13;3.05;;;;;;;;;;5049795;28;20218;-74
2021/10/25 00:43:20;;;;;;;5.78;3.53;;;;;;;;;;5048593;28;20183;-75
2021/10/25 00:45:46;;;;;;;5.70;3.90;;;;;;;;;;5040422;28;20217;-75
2021/10/25 00:48:12;;;;;;;4.97;3.80;;;2.00;1.00;;;;;;5053247;28;20511;-75
2021/10/25 00:50:39;;;;;;;4.77;3.77;;;2.00;1.00;;;;;;5053683;28;20214;-75
2021/10/25 00:53:12;;;;;;;5.10;3.90;;;;;;;;;;5042711;28;20168;-76
2021/10/25 00:55:42;;;;;;;5.13;3.75;;;;;;;;;;5043274;28;20207;-75
2021/10/25 00:58:09;;;;;;;6.80;3.35;;;;;;;;;;5047103;28;20179;-75
2021/10/25 01:00:36;;;;;;;4.20;3.80;;;;;;;;;;5050908;28;20176;-75
2021/10/25 01:03:12;;;;;;;4.30;3.90;;;;;;;;;;5057657;28;20222;-75
2021/10/25 01:05:42;;;;;;;5.32;3.80;;;;;;;;;;5043870;28;20258;-75
2021/10/25 01:08:08;;;;;;;5.65;3.90;;;;;;;;;;5037672;28;20192;-75
2021/10/25 01:10:34;;;;;;;5.40;3.72;;;;;;;;;;5048255;28;20175;-75
2021/10/25 01:13:06;;;;;;;6.28;4.05;;;;;;;;;;5057102;28;20187;-75
2021/10/25 01:15:36;;;;;;;5.82;4.10;;;;;;;;;;5056036;28;20198;-75
2021/10/25 01:18:02;;;;;;;6.57;3.78;;;;;;;;;;5055784;28;20259;-75
2021/10/25 01:20:30;;;;;;;13.18;4.43;;;1.70;1.00;;;;;;5057203;28;20650;-75
2021/10/25 01:22:57;;;;;;;5.90;3.80;;;;;;;;;;5053543;28;20191;-75
2021/10/25 01:25:23;;;;;;;13.27;4.25;;;;;;;;;;5047354;28;20519;-75
2021/10/25 01:27:50;;;;;;;6.20;4.40;;;1.70;1.00;;;;;;5043629;28;20175;-75
2021/10/25 01:30:16;;;;;;;6.30;4.60;;;;;;;;;;5057019;28;20171;-75
2021/10/25 01:32:43;;;;;;;4.97;3.75;;;1.60;1.00;;;;;;5053131;28;20241;-75
2021/10/25 01:35:09;;;;;;;7.00;4.10;;;;;;;;;;5057177;28;20196;-75
2021/10/25 01:37:35;;;;;;;8.75;4.18;;;;;;;;;;5052492;28;20647;-75
2021/10/25 01:40:02;;;;;;;9.20;4.18;;;;;;;;;;5047950;28;20201;-75
2021/10/25 01:42:28;;;;;;;5.05;4.05;;;;;;;;;;5052291;28;20655;-74
2021/10/25 01:44:54;;;;;;;8.77;4.28;;;;;;;;;;5046444;28;20289;-75
2021/10/25 01:47:24;;;;;;;4.68;3.67;;;;;;;;;;5056653;28;20650;-74
2021/10/25 01:49:54;;;;;;;7.38;3.65;;;;;;;;;;5055716;28;20208;-75
2021/10/25 01:52:24;;;;;;;3.97;3.35;;;;;;;;;;5055406;28;20565;-76
2021/10/25 01:54:51;;;;;;;5.78;3.63;;;;;;;;;;5044472;28;20196;-76
2021/10/25 01:57:24;;;;;;;10.77;4.40;;;;;;;;;;5037390;28;20565;-75
2021/10/25 01:59:54;;;;;;;5.28;3.38;;;;;;;;;;5042533;28;20275;-76
2021/10/25 02:02:24;;;;;;;7.03;3.92;;;;;;;;;;5043513;28;20179;-75
2021/10/25 02:04:54;;;;;;;10.63;3.83;;;;;;;;;;5056800;28;20179;-75
2021/10/25 02:07:20;;;;;;;5.38;4.35;;;;;;;;;;5045488;28;20524;-75
2021/10/25 02:10:00;;;;;;;6.32;3.78;;;;;;;;;;5036678;28;20608;-75
2021/10/25 02:12:26;;;;;;;10.57;4.28;;;;;;;;;;5046579;28;20167;-75
2021/10/25 02:14:54;;;;;;;5.22;3.45;;;;;;;;;;5039058;28;20231;-75
2021/10/25 02:17:48;;;;;;;4.28;3.67;;;1.40;1.00;;;;;;5046720;28;20244;-75
2021/10/25 02:20:14;;;;;;;6.35;3.60;;;;;;;;;;5044271;28;20174;-75
2021/10/25 02:22:42;;;;;;;7.25;3.83;;;;;;;;;;5056051;28;20156;-75
2021/10/25 02:25:12;;;;;;;6.50;4.35;;;;;;;;;;5056432;28;20160;-76
2021/10/25 02:27:38;;;;;;;7.80;4.22;;;;;;;;;;5056102;28;20266;-75
2021/10/25 02:30:04;;;;;;;16.00;4.32;;;;;;;;;;5047605;28;20184;-76
2021/10/25 02:32:36;;;;;;;6.88;4.30;;;;;;;;;;5051180;28;20641;-76
2021/10/25 02:35:03;;;;;;;10.73;3.95;;;;;;;;;;5055812;28;20203;-75
2021/10/25 02:37:36;;;;;;;5.57;4.05;;;;;;;;;;5054125;28;20639;-75
2021/10/25 02:40:03;;;;;;;6.00;3.85;;;;;;;;;;5054149;28;20271;-75
2021/10/25 02:42:29;;;;;;;4.25;3.70;;;;;;;;;;5055548;28;20534;-74
2021/10/25 02:44:55;;;;;;;5.35;3.95;;;;;;;;;;5055719;28;20167;-75
2021/10/25 02:47:30;;;;;;;6.10;3.92;;;;;;;;;;5038413;28;20176;-75
2021/10/25 02:49:57;;;;;;;5.97;4.20;;;;;;;;;;5052150;28;20649;-75
2021/10/25 02:52:24;;;;;;;7.22;3.88;;;;;;;;;;5055433;28;20176;-75
2021/10/25 02:54:50;;;;;;;4.63;3.45;;;;;;;;;;5055623;28;20619;-75
2021/10/25 02:57:17;;;;;;;17.05;5.47;;;;;;;;;;5037322;28;20255;-75
2021/10/25 02:59:48;;;;;;;5.57;4.03;;;;;;;;;;5044976;28;20223;-75
2021/10/25 03:02:19;;;;;;;9.32;4.47;;;;;;;;;;5047939;28;20184;-75
2021/10/25 03:04:48;;;;;;;5.63;4.22;;;;;;;;;;5042460;28;20571;-75
2021/10/25 03:07:18;;;;;;;9.48;4.75;;;;;;;;;;5045392;28;20214;-75
2021/10/25 03:09:44;;;;;;;5.57;4.38;;;;;;;;;;5055098;28;20176;-75
2021/10/25 03:12:11;;;;;;;6.18;4.18;;;;;;;;;;5047201;28;20230;-75
2021/10/25 03:14:43;;;;;;;6.60;4.07;;;1.10;1.00;;;;;;5036664;28;20602;-76
2021/10/25 03:17:09;;;;;;;4.80;4.00;;;;;;;;;;5044807;28;20184;-76
2021/10/25 03:19:37;;;;;;;6.63;3.95;;;;;;;;;;5051141;28;20178;-75
2021/10/25 03:22:05;;;;;;;10.00;4.07;;;;;;;;;;5045499;28;20225;-76
2021/10/25 03:24:36;;;;;;;4.60;3.92;;;;;;;;;;5038375;28;20259;-75
2021/10/25 03:27:12;;;;;;;5.40;3.85;;;;;;;;;;5055119;28;20164;-75
2021/10/25 03:29:59;;;;;;;5.93;4.22;;;1.00;1.00;;;;;;5054662;28;20179;-76
2021/10/25 03:32:26;;;;;;;5.85;4.07;;;;;;;;;;5039859;28;20655;-75
2021/10/25 03:34:53;;;;;;;14.70;5.20;;;;;;;;;;5053151;28;20199;-75
2021/10/25 03:37:20;;;;;;;5.13;4.60;;;;;;;;;;5047451;28;20180;-75
2021/10/25 03:39:50;;;;;;;5.95;4.07;;;;;;;;;;5054458;28;20217;-75
2021/10/25 03:42:29;;;;;;;7.65;4.20;;;;;;;;;;5050691;28;20179;-76
2021/10/25 03:45:23;;;;;;;6.43;4.15;;;;;;;;;;5044061;28;20650;-75
2021/10/25 03:50:21;;;;;;;4.40;3.75;;;;;;;;;;5049377;28;20592;-76
2021/10/25 03:53:05;;;;;;;6.05;4.93;;;1.00;1.00;;;;;;5045756;28;20230;-76
2021/10/25 03:55:51;;;;;;;5.72;4.20;;;;;;;;;;5039418;28;20222;-76
2021/10/25 04:01:28;;;;;;;8.40;4.43;;;;;;;;;;5039225;28;20188;-76
2021/10/25 04:13:01;;;;;;;8.98;4.78;;;;;;;;;;5051289;28;20178;-76
2021/10/25 04:29:03;;;;;;;9.73;4.72;;;;;;;;;;5042895;28;20235;-75
2021/10/25 04:31:29;;;;;;;10.10;4.80;;;;;;;;;;5051342;28;20178;-75
2021/10/25 04:34:00;;;;;;;6.60;4.65;;;;;;;;;;5052432;28;20623;-75
2021/10/25 04:36:42;;;;;;;7.72;5.22;;;;;;;;;;5054067;28;20172;-79
2021/10/25 04:39:12;;;;;;;7.93;4.60;;;;;;;;;;5041077;28;20188;-75
2021/10/25 04:41:39;;;;;;;10.25;4.93;;;;;;;;;;5050988;28;20644;-75
2021/10/25 04:44:07;;;;;;;8.35;5.00;;;;;;;;;;5033765;28;20242;-75
2021/10/25 04:46:33;;;;;;;7.32;4.82;;;;;;;;;;5047239;28;20179;-79
2021/10/25 04:48:59;;;;;;;6.72;4.60;;;;;;;;;;5041055;28;20266;-74
2021/10/25 04:51:25;;;;;;;7.50;5.20;;;;;;;;;;5052390;28;20210;-75
2021/10/25 04:53:54;;;;;;;11.07;5.10;;;;;;;;;;5049315;28;20171;-74
2021/10/25 04:56:20;;;;;;;10.77;5.85;;;;;;;;;;5051311;28;20172;-73
2021/10/25 04:58:48;;;;;;;8.15;5.18;;;;;;;;;;5052138;28;20175;-75
2021/10/25 05:01:14;;;;;;;6.65;5.13;;;;;;;;;;5050772;28;20232;-75
2021/10/25 05:03:42;;;;;;;9.43;5.10;;;1.80;1.00;;;;;;5051748;28;20188;-74
2021/10/25 05:06:15;;;;;;;9.80;5.63;;;;;;;;;;5052827;28;20229;-75
2021/10/25 05:08:42;;;;;;;8.68;5.90;;;;;;;;;;5052539;28;20735;-76
2021/10/25 05:11:08;;;;;;;10.25;5.28;;;;;;;;;;5045058;28;20190;-76
2021/10/25 05:13:34;;;;;;;8.88;4.88;;;;;;;;;;5040887;28;20175;-76
2021/10/25 05:16:07;;;;;;;11.23;5.85;;;2.30;1.00;;;;;;5052773;28;20691;-75
2021/10/25 05:18:33;;;;;;;10.23;5.25;;;;;;;;;;5053398;28;20184;-84
2021/10/25 05:21:12;;;;;;;15.50;5.88;;;;;;;;;;5042253;28;20179;-78
2021/10/25 05:23:42;;;;;;;18.58;6.32;;;;;;;;;;5053918;28;20179;-78
2021/10/25 05:26:12;;;;;;;9.77;5.22;;;;;;;;;;5053692;28;20202;-78
2021/10/25 05:28:42;;;;;;;64.53;10.43;;;;;;;;;;5052213;28;20171;-77
2021/10/25 05:31:12;;;;;;;38.30;7.68;;;;;;;;;;5039994;28;20254;-77
2021/10/25 05:34:11;;;;;;;17.80;6.15;;;2.70;1.00;;;;;;5049330;28;20587;-78
2021/10/25 05:36:48;;;;;;;18.88;5.85;;;;;;;;;;5044512;28;20199;-78
2021/10/25 05:39:24;;;;;;;9.18;5.88;;;;;;;;;;5050607;28;20183;-79
2021/10/25 05:41:51;;;;;;;14.05;5.60;;;;;;;;;;5049238;28;20175;-78
2021/10/25 05:44:30;;;;;;;10.43;5.05;;;;;;;;;;5050745;28;20544;-77
2021/10/25 05:46:58;;;;;;;12.25;5.88;;;;;;;;;;5056670;28;20159;-79
2021/10/25 05:49:53;;;;;;;13.75;5.88;;;;;;;;;;5044516;28;20184;-79
2021/10/25 05:52:21;;;;;;;20.65;6.25;;;;;;;;;;5048602;28;20279;-82
2021/10/25 05:54:54;;;;;;;14.30;6.05;;;;;;;;;;5056395;28;20632;-79
2021/10/25 05:57:48;;;;;;;19.92;5.93;;;;;;;;;;5056357;28;20634;-79
2021/10/25 06:00:39;;;;;;;17.73;6.43;;;3.10;1.00;;;;;;5056166;28;20191;-79
2021/10/25 06:03:33;;;;;;;8.73;5.30;;;3.10;1.00;;;;;;5054944;28;20174;-78
2021/10/25 06:06:01;;;;;;;25.88;6.43;;;;;;;;;;5056326;28;20631;-78
2021/10/25 06:08:28;;;;;;;23.55;7.03;;;;;;;;;;5056701;28;20310;-79
2021/10/25 06:11:36;;;;;;;16.52;6.20;;;3.10;1.00;;;;;;5052829;28;20207;-78
2021/10/25 06:14:08;;;;;;;16.58;7.10;;;;;;;;;;5050864;28;20168;-78
2021/10/25 06:16:43;;;;;;;16.77;6.68;;;;;;;;;;5052036;28;20179;-78
2021/10/25 06:19:20;;;;;;;14.90;6.68;;;;;;;;;;5052555;28;20180;-81
2021/10/25 06:25:11;;;;;;;14.88;7.40;;;;;;;;;;5043716;28;20210;-79
2021/10/25 06:27:54;;;;;;;16.58;6.85;;;;;;;;;;5052596;28;20167;-77
2021/10/25 06:30:24;;;;;;;13.00;6.07;;;;;;;;;;5048074;28;20184;-77
2021/10/25 06:32:51;;;;;;;9.38;6.25;;;;;;;;;;5047004;28;20188;-78
2021/10/25 06:35:57;;;;;;;11.30;6.85;;;3.80;1.00;;;;;;5053017;28;20180;-76
2021/10/25 06:38:44;;;;;;;16.08;7.57;;;3.90;1.00;;;;;;5037769;28;20532;-78
2021/10/25 06:41:12;;;;;;;206.63;24.60;;;;;;;;;;5036731;28;21093;-80
2021/10/25 06:43:49;;;;;;;21.70;8.65;;;;;;;;;;5039692;28;20183;-78
2021/10/25 06:46:53;;;;;;;13.10;7.53;;;4.10;1.00;;;;;;5050073;28;20199;-78
2021/10/25 06:49:48;;;;;;;12.30;6.80;;;4.20;1.00;;;;;;5042418;28;20636;-78
2021/10/25 06:52:14;;;;;;;9.20;6.75;;;;;;;;;;5044199;28;20183;-78
2021/10/25 06:54:48;;;;;;;12.90;6.70;;;;;;;;;;5055808;28;20686;-77
2021/10/25 06:57:14;;;;;;;19.20;7.10;;;;;;;;;;5053507;28;20218;-78
2021/10/25 06:59:42;;;;;;;15.98;7.30;;;;;;;;;;5038769;28;20552;-77
2021/10/25 07:02:12;;;;;;;20.48;7.47;;;;;;;;;;5055899;28;20497;-78
2021/10/25 07:04:39;;;;;;;11.48;7.35;;;;;;;;;;5055159;28;20190;-77
2021/10/25 07:07:21;;;;;;;15.15;7.03;;;;;;;;;;5053249;28;20591;-77
2021/10/25 07:09:48;;;;;;;17.17;7.33;;;;;;;;;;5048880;28;20195;-77
2021/10/25 07:12:18;;;;;;;9.02;5.78;;;;;;;;;;5060837;28;20917;-77
2021/10/25 07:14:50;;;;;;;14.35;5.97;;;;;;;;;;5042579;28;20179;-78
2021/10/25 08:10:42;;;;;;;21.93;8.53;;;;;;;;;;5043770;28;20525;-77
2021/10/25 08:13:13;;;;;;;14.30;8.10;;;;;;;;;;5047682;28;20418;-77
2021/10/25 08:15:42;;;;;;;25.57;8.60;;;;;;;;;;5037889;28;20434;-77
2021/10/25 08:18:32;;;;;;;15.73;8.63;;;7.10;1.00;;;;;;5053372;28;20414;-77
2021/10/25 08:20:55;;;;;;;26.30;9.90;;;;;;;;;;5047681;28;20466;-77
2021/10/25 08:23:21;;;;;;;23.13;9.50;;;;;;;;;;5051582;28;20902;-77
2021/10/25 08:25:47;;;;;;;20.53;8.30;;;;;;;;;;5042827;28;20561;-77
2021/10/25 08:28:14;;;;;;;24.10;9.77;;;;;;;;;;5052784;28;20421;-77
2021/10/25 08:30:40;;;;;;;28.37;10.27;;;;;;;;;;5040362;28;20521;-77
2021/10/25 08:36:08;;;;;;;26.50;9.20;;;;;;;;;;4999815;28;20410;-77
2021/10/25 08:41:20;;;;;;;27.93;11.27;;;7.70;1.00;;;;;;4995710;28;20447;-77
2021/10/25 08:43:46;;;;;;;26.47;12.33;;;;;;;;;;4974582;28;20983;-77
2021/10/25 08:46:15;;;;;;;25.10;11.63;;;7.60;1.00;;;;;;4996189;28;20472;-77
2021/10/25 08:48:44;;;;;;;25.13;11.50;;;7.60;1.00;;;;;;5001421;28;20432;-77
2021/10/25 08:51:10;;;;;;;33.97;12.37;;;;;;;;;;4993256;28;20951;-78
2021/10/25 08:53:36;;;;;;;33.93;11.10;;;;;;;;;;4992399;28;20452;-78
2021/10/25 08:56:03;;;;;;;53.37;14.30;;;7.70;1.00;;;;;;4999578;28;20535;-78
2021/10/25 08:58:34;;;;;;;27.90;10.37;;;;;;;;;;4991914;28;20437;-78
2021/10/25 09:01:00;;;;;;;23.40;10.77;;;;;;;;;;4991595;28;20441;-78
2021/10/25 09:03:26;;;;;;;19.37;9.57;;;;;;;;;;4991169;28;20421;-79
2021/10/25 09:05:56;;;;;;;27.90;10.90;;;7.80;1.00;;;;;;5001269;28;20510;-79
2021/10/25 09:08:22;;;;;;;18.97;10.77;;;;;;;;;;5003038;28;20435;-83
2021/10/25 09:10:48;;;;;;;35.10;12.07;;;;;;;;;;5006260;28;20836;-78
2021/10/25 09:13:17;;;;;;;22.70;11.30;;;7.90;1.00;;;;;;5035815;28;20487;-78
2021/10/25 09:15:50;;;;;;;20.23;10.23;;;8.00;1.00;;;;;;5050340;28;20430;-78
2021/10/25 09:18:31;;;;;;;33.17;12.80;;;7.90;1.00;;;;;;5052459;28;20425;-78
2021/10/25 09:20:58;;;;;;;20.30;10.73;;;7.90;1.00;;;;;;5048147;28;20514;-80
2021/10/25 09:23:32;;;;;;;31.17;12.90;;;7.90;1.00;;;;;;5048212;28;20414;-79
2021/10/25 09:26:01;;;;;;;25.47;11.33;;;8.00;1.00;;;;;;5050063;28;20487;-78
2021/10/25 09:28:37;;;;;;;26.57;12.27;;;8.10;1.00;;;;;;5049683;28;20437;-78
2021/10/25 09:31:09;;;;;;;24.13;12.10;;;8.30;1.00;;;;;;5043654;28;20457;-79
2021/10/25 09:33:40;;;;;;;24.43;12.03;;;;;;;;;;5047010;28;20430;-78
2021/10/25 09:36:14;;;;;;;24.30;12.00;;;8.50;1.00;;;;;;5055702;28;20418;-78
2021/10/25 09:49:35;;;;;;;22.10;11.03;;;8.90;1.00;;;;;;5046641;28;20452;-77
2021/10/25 09:52:04;;;;;;;21.03;10.90;;;9.10;1.00;;;;;;5050468;28;20460;-77
2021/10/25 09:54:33;;;;;;;21.83;11.57;;;9.10;1.00;;;;;;5049282;28;20429;-77
2021/10/25 09:57:13;;;;;;;39.60;12.27;;;9.00;1.00;;;;;;5053886;28;20991;-77
2021/10/25 09:59:57;;;;;;;23.60;10.43;;;9.00;1.00;;;;;;5053494;28;20469;-77
2021/10/25 10:02:24;;;;;;;19.70;9.70;;;9.00;1.00;;;;;;5051753;28;20529;-76
2021/10/25 10:05:05;;;;;;;23.40;10.43;;;9.00;1.00;;;;;;5049291;28;20542;-76
2021/10/25 10:07:32;;;;;;;17.23;10.23;;;8.90;1.00;;;;;;5036645;28;20434;-76
2021/10/25 10:09:58;;;;;;;17.00;10.20;;;;;;;;;;5047671;28;20426;-79
2021/10/25 10:12:27;;;;;;;25.50;11.20;;;;;;;;;;5055009;28;20921;-79
2021/10/25 10:14:56;;;;;;;30.57;11.07;;;8.90;1.00;;;;;;5053907;28;20476;-80
2021/10/25 10:17:28;;;;;;;21.13;11.50;;;;;;;;;;5049762;28;20426;-79
2021/10/25 10:19:54;;;;;;;19.40;10.90;;;;;;;;;;5040030;28;20488;-79
2021/10/25 10:22:21;;;;;;;24.80;11.60;;;9.00;1.00;;;;;;5041891;28;20434;-78
2021/10/25 10:24:50;;;;;;;20.90;10.93;;;8.80;1.00;;;;;;5055480;28;20515;-78
2021/10/25 10:27:23;;;;;;;19.50;10.50;;;8.70;1.00;;;;;;5055171;28;20459;-78
2021/10/25 10:29:58;;;;;;;24.07;12.27;;;8.60;1.00;;;;;;5055044;28;20426;-78
2021/10/25 10:32:31;;;;;;;18.40;10.80;;;8.70;1.00;;;;;;5040287;28;20488;-78
2021/10/25 10:35:02;;;;;;;27.30;12.40;;;8.80;1.00;;;;;;5037478;28;20530;-78
2021/10/25 10:37:28;;;;;;;25.30;12.50;;;;;;;;;;5044313;28;20445;-79
2021/10/25 10:40:18;;;;;;;20.93;10.27;;;9.00;1.00;;;;;;5045307;28;20887;-78
2021/10/25 10:42:52;;;;;;;24.83;12.10;;;9.20;1.00;;;;;;5048896;28;20791;-78
2021/10/25 10:46:09;;;;;;;23.60;12.23;;;9.50;1.00;;;;;;5047085;28;20561;-78
2021/10/25 10:55:33;;;;;;;23.13;12.00;;;9.90;1.00;;;;;;5055324;28;20423;-79
2021/10/25 11:00:49;;;;;;;33.53;12.20;;;;;;;;;;5042811;28;20442;-78
2021/10/25 11:03:36;;;;;;;22.67;11.07;;;10.10;1.00;;;;;;5055155;28;20444;-79
2021/10/25 11:06:19;;;;;;;20.27;11.27;;;10.10;1.00;;;;;;5042046;28;20454;-78
2021/10/25 11:08:49;;;;;;;26.37;11.83;;;;;;;;;;5035801;28;20494;-78
2021/10/25 11:11:20;;;;;;;22.40;10.53;;;10.20;1.00;;;;;;5047587;28;20406;-76
2021/10/25 11:14:14;;;;;;;18.47;10.53;;;;;;;;;;5054761;28;20426;-77
2021/10/25 11:17:02;;;;;;;27.80;11.60;;;;;;;;;;5036803;28;20417;-76
2021/10/25 11:19:44;;;;;;;22.00;10.33;;;10.40;1.00;;;;;;5042039;28;20942;-76
2021/10/25 11:22:12;;;;;;;20.33;10.37;;;;;;;;;;5047420;28;20468;-76
2021/10/25 11:24:52;;;;;;;18.43;10.53;;;10.60;1.00;;;;;;5054792;28;21003;-78
2021/10/25 11:28:00;;;;;;;25.30;11.37;;;10.70;1.00;;;;;;5054966;28;20418;-79
2021/10/25 11:31:01;;;;;;;22.40;11.07;;;10.70;1.00;;;;;;5038757;28;20434;-78
2021/10/25 11:37:02;;;;;;;20.90;10.60;;;10.70;1.00;;;;;;5064841;28;20420;-78
2021/10/25 11:39:47;;;;;;;25.77;10.47;;;10.80;1.00;;;;;;5074945;28;20429;-77
2021/10/25 11:42:39;;;;;;;26.80;12.30;;;11.00;1.00;;;;;;5045839;28;20529;-78
2021/10/25 11:45:06;;;;;;;25.50;11.07;;;11.00;1.00;;;;;;5050706;28;20528;-77
2021/10/25 11:47:44;;;;;;;31.67;11.27;;;11.20;1.00;;;;;;5037364;28;20434;-77
2021/10/25 11:50:15;;;;;;;17.90;10.10;;;;;;;;;;5046123;28;20430;-76
2021/10/25 11:52:43;;;;;;;18.70;10.10;;;;;;;;;;5036044;28;20446;-77
2021/10/25 11:55:12;;;;;;;19.10;9.97;;;11.20;1.00;;;;;;5047609;28;20870;-76
2021/10/25 11:58:24;;;;;;;23.03;11.00;;;11.20;1.00;;;;;;5047593;28;20418;-79
2021/10/25 12:01:43;;;;;;;27.33;10.77;;;11.30;1.00;;;;;;5037266;28;20441;-79
2021/10/25 12:04:30;;;;;;;20.53;10.50;;;;;;;;;;5047624;28;20488;-76
2021/10/25 12:07:07;;;;;;;21.33;9.67;;;;;;;;;;5047275;28;20425;-77
2021/10/25 12:09:33;;;;;;;18.23;10.00;;;;;;;;;;5036294;28;20437;-76
2021/10/25 12:12:06;;;;;;;16.97;10.07;;;;;;;;;;5045204;28;20426;-76
2021/10/25 12:14:35;;;;;;;20.63;10.40;;;;;;;;;;5051741;28;20430;-76
2021/10/25 12:17:02;;;;;;;19.20;10.47;;;;;;;;;;5053133;28;20410;-76
2021/10/25 12:19:29;;;;;;;27.90;10.47;;;11.40;1.00;;;;;;5041764;28;20438;-77
2021/10/25 12:21:55;;;;;;;21.10;10.37;;;;;;;;;;5052951;28;20414;-76
2021/10/25 12:24:22;;;;;;;19.50;10.67;;;;;;;;;;5052805;28;20501;-76
2021/10/25 12:27:01;;;;;;;21.03;9.70;;;;;;;;;;5051085;28;20432;-77
2021/10/25 12:29:28;;;;;;;17.37;10.20;;;;;;;;;;5047659;28;20418;-76
2021/10/25 12:31:55;;;;;;;18.33;10.60;;;;;;;;;;5042068;28;20794;-76
2021/10/25 12:34:21;;;;;;;16.10;9.77;;;;;;;;;;5047704;28;20417;-76
2021/10/25 12:36:47;;;;;;;21.60;9.30;;;;;;;;;;5039589;28;20485;-76
2021/10/25 12:39:18;;;;;;;18.13;9.37;;;;;;;;;;5053006;28;20430;-76
2021/10/25 12:41:45;;;;;;;15.97;9.47;;;;;;;;;;5036118;28;20431;-76
2021/10/25 12:44:25;;;;;;;15.63;8.60;;;;;;;;;;5031978;28;20772;-76
2021/10/25 12:47:25;;;;;;;15.83;9.07;;;12.50;1.00;;;;;;5038023;28;20435;-78
2021/10/25 12:49:56;;;;;;;17.03;9.50;;;12.50;1.00;;;;;;5008447;28;20480;-77
2021/10/25 12:52:30;;;;;;;39.00;11.90;;;12.60;1.00;;;;;;5010671;28;21077;-77
2021/10/25 12:55:30;;;;;;;20.93;9.23;;;12.60;1.00;;;;;;5002859;28;20472;-80
2021/10/25 12:58:13;;;;;;;18.80;9.60;;;;;;;;;;4995338;28;20431;-78
2021/10/25 13:00:40;;;;;;;18.80;9.00;;;;;;;;;;5006135;28;20523;-75
2021/10/25 13:03:10;;;;;;;17.17;8.50;;;;;;;;;;4992659;28;20456;-76
2021/10/25 13:05:38;;;;;;;16.40;8.93;;;;;;;;;;5002428;28;21034;-79
2021/10/25 13:08:08;;;;;;;24.33;9.30;;;12.90;1.00;;;;;;5004885;28;20428;-78
2021/10/25 13:11:18;;;;;;;12.80;8.23;;;13.00;1.00;;;;;;4992391;28;21053;-78
2021/10/25 13:13:58;;;;;;;22.53;8.70;;;;;;;;;;4994935;28;20394;-77
2021/10/25 13:16:29;;;;;;;14.30;8.13;;;;;;;;;;5011519;28;20419;-77
2021/10/25 13:19:01;;;;;;;18.87;8.97;;;;;;;;;;5011836;28;20426;-76
2021/10/25 13:21:27;;;;;;;15.27;8.53;;;;;;;;;;4996774;28;20480;-77
2021/10/25 13:23:54;;;;;;;12.97;8.57;;;;;;;;;;5011206;28;20836;-77
2021/10/25 13:26:48;;;;;;;16.57;8.27;;;13.40;1.00;;;;;;5035550;28;20986;-75
2021/10/25 13:29:14;;;;;;;15.60;8.90;;;;;;;;;;5043062;28;20917;-76
2021/10/25 13:31:40;;;;;;;15.23;9.30;;;;;;;;;;5038734;28;20747;-76
2021/10/25 13:37:29;;;;;;;14.50;7.93;;;;;;;;;;5032792;28;20814;-79
2021/10/25 13:40:07;;;;;;;15.33;9.00;;;;;;;;;;5046508;28;20469;-77
2021/10/25 13:42:33;;;;;;;18.67;8.90;;;;;;;;;;5036375;28;20897;-76
2021/10/25 13:45:48;;;;;;;18.10;8.83;;;13.80;1.00;;;;;;5052884;28;20946;-78
2021/10/25 13:48:14;;;;;;;12.93;7.93;;;13.90;1.00;;;;;;5052107;28;20400;-78
2021/10/25 13:50:41;;;;;;;29.17;10.07;;;14.00;1.00;;;;;;5052974;28;20454;-77
2021/10/25 13:53:09;;;;;;;16.53;8.70;;;;;;;;;;5035304;28;20466;-76
2021/10/25 13:56:00;;;;;;;21.70;9.67;;;14.20;1.00;;;;;;5048277;28;20943;-77
2021/10/25 13:58:26;;;;;;;13.73;8.50;;;14.20;1.00;;;;;;5041888;28;20415;-78
2021/10/25 14:01:24;;;;;;;18.13;9.00;;;14.20;1.00;;;;;;5047671;28;20414;-78
2021/10/25 14:04:20;;;;;;;15.50;9.03;;;14.30;1.00;;;;;;5045625;28;20396;-77
2021/10/25 14:07:30;;;;;;;11.40;7.60;;;14.40;1.00;;;;;;5051801;28;20796;-78
2021/10/25 14:10:43;;;;;;;24.20;9.10;;;14.40;1.00;;;;;;5043447;28;20415;-78
2021/10/25 14:13:30;;;;;;;17.03;7.90;;;14.40;1.00;;;;;;5049471;28;20409;-79
2021/10/25 14:16:34;;;;;;;15.40;8.87;;;14.40;1.00;;;;;;5053442;28;20414;-78
2021/10/25 14:19:03;;;;;;;16.37;9.40;;;14.30;1.00;;;;;;5056209;28;20485;-78
2021/10/25 14:21:42;;;;;;;16.13;8.87;;;14.50;1.00;;;;;;5055527;28;20380;-79
2021/10/25 14:24:39;;;;;;;21.50;8.83;;;14.40;1.00;;;;;;5044229;28;20414;-78
2021/10/25 14:27:24;;;;;;;21.80;10.30;;;14.40;1.00;;;;;;5043419;28;20428;-77
2021/10/25 14:29:50;;;;;;;19.40;9.63;;;;;;;;;;5042750;28;20487;-78
2021/10/25 14:32:18;;;;;;;15.97;8.17;;;;;;;;;;5046898;28;20429;-77
2021/10/25 14:35:02;;;;;;;16.70;7.43;;;;;;;;;;5040103;28;20389;-76
2021/10/25 14:37:41;;;;;;;15.77;6.90;;;;;;;;;;5036029;28;20361;-77
2021/10/25 14:40:14;;;;;;;14.70;8.27;;;;;;;;;;5041510;28;20397;-77
2021/10/25 14:42:52;;;;;;;42.27;9.50;;;14.50;1.00;;;;;;5052989;28;20392;-75
2021/10/25 14:46:33;;;;;;;15.93;6.50;;;14.50;1.00;;;;;;5043588;28;20954;-80
2021/10/25 14:49:01;;;;;;;16.13;8.00;;;;;;;;;;5046767;28;20449;-77
2021/10/25 14:54:22;;;;;;;19.90;8.40;;;;;;;;;;5051450;28;20802;-76
2021/10/25 14:56:49;;;;;;;20.23;7.50;;;;;;;;;;5048200;28;20434;-76
2021/10/25 14:59:15;;;;;;;12.73;8.03;;;;;;;;;;5046957;28;20783;-76
2021/10/25 15:01:41;;;;;;;16.30;8.40;;;;;;;;;;5055608;28;20369;-76
2021/10/25 15:07:38;;;;;;;17.53;8.83;;;;;;;;;;5040569;28;20499;-76
2021/10/25 15:10:04;;;;;;;13.80;8.17;;;;;;;;;;5052776;28;20427;-75
2021/10/25 15:12:30;;;;;;;16.57;8.10;;;;;;;;;;5046821;28;20431;-75
2021/10/25 15:15:13;;;;;;;17.20;8.03;;;;;;;;;;5049349;28;20699;-75
2021/10/25 15:18:00;;;;;;;14.63;7.73;;;;;;;;;;5054350;28;20390;-75
2021/10/25 15:20:31;;;;;;;15.07;7.17;;;13.80;1.00;;;;;;5049737;28;20411;-77
2021/10/25 15:22:58;;;;;;;19.17;8.60;;;13.80;1.00;;;;;;5048139;28;20398;-77
2021/10/25 15:25:39;;;;;;;11.70;6.90;;;;;;;;;;5048527;28;20463;-77
2021/10/25 15:28:16;;;;;;;14.77;7.30;;;;;;;;;;5050291;28;20903;-76
2021/10/25 15:30:51;;;;;;;15.53;8.13;;;;;;;;;;5052012;28;20424;-76
2021/10/25 15:33:19;;;;;;;16.93;7.17;;;;;;;;;;5054845;28;20829;-76
2021/10/25 15:35:46;;;;;;;10.97;6.97;;;13.30;1.00;;;;;;5043806;28;20469;-76
2021/10/25 15:38:13;;;;;;;12.73;7.33;;;;;;;;;;5042055;28;20436;-75
2021/10/25 15:40:49;;;;;;;20.53;6.90;;;;;;;;;;5054745;28;20442;-75
2021/10/25 15:43:19;;;;;;;11.27;6.90;;;;;;;;;;5054678;28;20410;-75
2021/10/25 15:45:45;;;;;;;14.00;7.27;;;;;;;;;;5054489;28;20442;-76
2021/10/25 15:48:13;;;;;;;12.67;7.17;;;12.70;1.00;;;;;;5065567;28;20409;-76
2021/10/25 15:50:40;;;;;;;16.90;7.80;;;12.60;1.00;;;;;;5049879;28;20461;-74
2021/10/25 15:53:07;;;;;;;15.00;7.20;;;;;;;;;;5054435;28;20429;-74
2021/10/25 15:56:00;;;;;;;16.90;7.97;;;12.20;1.00;;;;;;5059139;28;20422;-76
2021/10/25 15:58:31;;;;;;;14.97;7.70;;;12.10;1.00;;;;;;5049175;28;20890;-74
2021/10/25 16:01:00;;;;;;;13.83;8.00;;;11.90;1.00;;;;;;5049529;28;20437;-77
2021/10/25 16:03:26;;;;;;;12.33;7.20;;;11.70;1.00;;;;;;5034579;28;20411;-77
2021/10/25 16:05:55;;;;;;;12.00;6.77;;;;;;;;;;5053323;28;20449;-77
2021/10/25 16:08:20;;;;;;;12.93;6.67;;;11.40;1.00;;;;;;5053961;28;20164;-77
2021/10/25 16:10:46;;;;;;;26.33;8.47;;;11.30;1.00;;;;;;5053135;28;20522;-77
2021/10/25 16:13:12;;;;;;;13.80;7.80;;;11.10;1.00;;;;;;5053546;28;20284;-76
2021/10/25 16:15:40;;;;;;;14.43;6.80;;;;;;;;;;5053309;28;20444;-76
2021/10/25 16:18:30;;;;;;;15.97;7.70;;;;;;;;;;5053813;28;20386;-76
2021/10/25 16:21:07;;;;;;;16.80;8.03;;;;;;;;;;5050698;28;20391;-76
2021/10/25 16:23:32;;;;;;;20.30;8.20;;;10.40;1.00;;;;;;5053929;28;20884;-75
2021/10/25 16:25:59;;;;;;;12.83;7.80;;;;;;;;;;5053952;28;20457;-77
2021/10/25 16:28:25;;;;;;;18.47;8.90;;;;;;;;;;5054487;28;20233;-77
2021/10/25 16:30:56;;;;;;;17.43;8.00;;;;;;;;;;5053964;28;20406;-77
2021/10/25 16:33:37;;;;;;;21.10;9.00;;;;;;;;;;5047980;28;20444;-77
2021/10/25 16:36:06;;;;;;;15.43;8.13;;;9.70;1.00;;;;;;5053780;28;20453;-76